createdAt,value
2023-01-27T00:00:57.912Z,75.10
2023-01-27T00:03:29.019Z,74.70
2023-01-27T00:06:06.026Z,74.70
2023-01-27T00:08:36.914Z,74.30
2023-01-27T00:11:25.481Z,73.50
2023-01-27T00:13:57.969Z,74.30
2023-01-27T00:16:28.843Z,73.60
2023-01-27T00:18:59.257Z,72.90
2023-01-27T00:21:47.467Z,70.90
2023-01-27T00:24:35.874Z,71.90
2023-01-27T00:27:10.632Z,71.00
2023-01-27T00:29:44.949Z,71.20
2023-01-27T00:32:33.567Z,72.40
2023-01-27T00:35:04.416Z,72.30
2023-01-27T00:37:35.351Z,72.40
2023-01-27T00:40:06.316Z,71.20
2023-01-27T00:42:37.004Z,71.60
2023-01-27T00:45:27.219Z,70.80
2023-01-27T00:47:57.952Z,70.90
2023-01-27T00:50:28.909Z,70.30
2023-01-27T00:53:01.301Z,70.20
2023-01-27T00:55:32.340Z,70.70
2023-01-27T00:58:02.704Z,71.50
2023-01-27T01:00:33.331Z,71.30
2023-01-27T01:03:03.823Z,70.90
2023-01-27T01:05:34.251Z,70.20
2023-01-27T01:08:04.654Z,70.70
2023-01-27T01:10:35.034Z,69.60
2023-01-27T01:13:05.800Z,70.30
2023-01-27T01:15:39.063Z,69.60
2023-01-27T01:18:10.961Z,69.60
2023-01-27T01:20:45.159Z,69.40
2023-01-27T01:23:17.646Z,70.00
2023-01-27T01:25:59.112Z,69.40
2023-01-27T01:28:30.315Z,68.90
2023-01-27T01:31:19.327Z,69.60
2023-01-27T01:33:51.687Z,69.80
2023-01-27T01:36:24.888Z,69.50
2023-01-27T01:39:01.231Z,69.40
2023-01-27T01:41:31.162Z,68.80
2023-01-27T01:44:02.079Z,66.90
2023-01-27T01:46:32.864Z,67.80
2023-01-27T01:49:05.916Z,66.50
2023-01-27T01:51:36.879Z,65.40
2023-01-27T01:54:23.758Z,63.40
2023-01-27T01:57:04.629Z,62.80
2023-01-27T01:59:56.553Z,61.90
2023-01-27T02:02:28.442Z,61.70
2023-01-27T02:05:26.221Z,60.40
2023-01-27T02:08:31.888Z,58.70
2023-01-27T02:11:03.806Z,59.70
2023-01-27T02:13:35.083Z,58.60
2023-01-27T02:16:06.042Z,58.10
2023-01-27T02:18:37.888Z,57.90
2023-01-27T02:21:09.152Z,58.80
2023-01-27T02:24:09.586Z,59.70
2023-01-27T02:26:46.071Z,59.60
2023-01-27T02:29:18.321Z,58.20
2023-01-27T02:31:48.753Z,58.70
2023-01-27T02:34:25.171Z,57.40
2023-01-27T02:37:03.293Z,58.40
2023-01-27T02:39:45.069Z,57.50
2023-01-27T02:42:19.055Z,57.70
2023-01-27T02:44:49.434Z,58.00
2023-01-27T02:47:19.856Z,57.00
2023-01-27T02:49:51.282Z,56.50
2023-01-27T02:52:21.765Z,57.30
2023-01-27T02:54:52.215Z,56.90
2023-01-27T02:57:22.734Z,58.00
2023-01-27T02:59:53.548Z,58.90
2023-01-27T03:02:25.064Z,59.60
2023-01-27T03:04:55.561Z,60.60
2023-01-27T03:07:27.608Z,59.60
2023-01-27T03:09:57.898Z,60.20
2023-01-27T03:12:28.234Z,58.50
2023-01-27T03:15:16.307Z,57.10
2023-01-27T03:18:05.054Z,56.30
2023-01-27T03:20:35.799Z,55.40
2023-01-27T03:23:07.034Z,56.40
2023-01-27T03:25:38.334Z,56.00
2023-01-27T03:28:09.146Z,56.20
2023-01-27T03:30:40.183Z,55.90
2023-01-27T03:33:12.264Z,56.10
2023-01-27T03:35:50.520Z,55.10
2023-01-27T03:38:39.635Z,55.40
2023-01-27T03:41:28.775Z,56.70
2023-01-27T03:44:20.120Z,55.30
2023-01-27T03:46:50.803Z,54.90
2023-01-27T03:49:21.283Z,54.80
2023-01-27T03:51:51.673Z,53.90
2023-01-27T03:54:22.027Z,55.00
2023-01-27T03:56:52.281Z,54.80
2023-01-27T03:59:22.656Z,55.90
2023-01-27T04:01:52.990Z,56.70
2023-01-27T04:04:41.527Z,56.80
2023-01-27T04:07:13.025Z,57.60
2023-01-27T04:09:43.724Z,57.10
2023-01-27T04:12:15.347Z,55.60
2023-01-27T04:14:46.223Z,55.30
2023-01-27T04:17:19.468Z,54.20
2023-01-27T04:19:50.128Z,55.80
2023-01-27T04:22:20.570Z,55.20
2023-01-27T04:24:52.030Z,55.00
2023-01-27T04:27:22.439Z,54.90
2023-01-27T04:29:52.683Z,55.10
2023-01-27T04:32:23.016Z,56.40
2023-01-27T04:34:53.470Z,56.20
2023-01-27T04:37:23.864Z,54.40
2023-01-27T04:39:54.775Z,55.30
2023-01-27T04:42:25.419Z,56.50
2023-01-27T04:44:55.703Z,56.90
2023-01-27T04:47:26.044Z,56.80
2023-01-27T04:49:56.303Z,56.90
2023-01-27T04:52:26.579Z,56.60
2023-01-27T04:54:57.036Z,56.00
2023-01-27T04:57:29.141Z,55.20
2023-01-27T05:00:00.485Z,56.00
2023-01-27T05:02:30.790Z,56.00
2023-01-27T05:05:01.047Z,56.50
2023-01-27T05:07:32.220Z,56.80
2023-01-27T05:10:02.730Z,55.50
2023-01-27T05:12:32.991Z,56.30
2023-01-27T05:15:03.278Z,55.70
2023-01-27T05:17:37.129Z,55.90
2023-01-27T05:20:07.799Z,56.60
2023-01-27T05:22:38.209Z,55.30
2023-01-27T05:25:09.413Z,55.00
2023-01-27T05:27:40.434Z,54.90
2023-01-27T05:30:11.418Z,54.30
2023-01-27T05:32:41.942Z,53.70
2023-01-27T05:35:12.690Z,53.10
2023-01-27T05:37:43.267Z,53.50
2023-01-27T05:40:14.533Z,54.90
2023-01-27T05:42:44.965Z,55.00
2023-01-27T05:45:16.455Z,54.60
2023-01-27T05:47:50.436Z,54.10
2023-01-27T05:50:21.691Z,54.30
2023-01-27T05:52:52.009Z,54.00
2023-01-27T05:55:22.797Z,54.10
2023-01-27T05:57:52.992Z,55.60
2023-01-27T06:00:23.898Z,56.50
2023-01-27T06:02:54.299Z,56.40
2023-01-27T06:05:26.011Z,56.30
2023-01-27T06:07:57.694Z,56.70
2023-01-27T06:10:28.023Z,56.30
2023-01-27T06:12:58.299Z,55.60
2023-01-27T06:15:28.979Z,56.20
2023-01-27T06:17:59.206Z,55.10
2023-01-27T06:20:29.751Z,55.20
2023-01-27T06:23:00.803Z,54.50
2023-01-27T06:25:30.999Z,54.60
2023-01-27T06:28:01.641Z,54.60
2023-01-27T06:30:33.142Z,54.50
2023-01-27T06:33:04.134Z,55.60
2023-01-27T06:35:37.186Z,55.50
2023-01-27T06:38:13.210Z,56.00
2023-01-27T06:40:43.942Z,56.40
2023-01-27T06:43:16.421Z,56.90
2023-01-27T06:45:47.659Z,57.60
2023-01-27T06:48:18.791Z,57.20
2023-01-27T06:50:49.480Z,58.10
2023-01-27T06:53:20.290Z,58.30
2023-01-27T06:55:51.033Z,59.00
2023-01-27T06:58:21.350Z,59.00
2023-01-27T07:00:51.602Z,59.10
2023-01-27T07:03:22.003Z,59.60
2023-01-27T07:05:52.585Z,59.90
2023-01-27T07:08:28.644Z,60.20
2023-01-27T07:10:58.998Z,60.90
2023-01-27T07:13:29.451Z,61.20
2023-01-27T07:15:59.758Z,61.10
2023-01-27T07:18:30.617Z,61.20
2023-01-27T07:21:01.652Z,61.70
2023-01-27T07:23:32.406Z,62.20
2023-01-27T07:26:12.515Z,62.20
2023-01-27T07:28:49.744Z,62.80
2023-01-27T07:31:20.300Z,63.70
2023-01-27T07:33:51.002Z,63.10
2023-01-27T07:36:21.568Z,62.90
2023-01-27T07:38:55.280Z,63.10
2023-01-27T07:41:27.761Z,63.40
2023-01-27T07:43:58.688Z,63.00
2023-01-27T07:46:29.605Z,63.10
2023-01-27T07:49:00.207Z,63.90
2023-01-27T07:51:30.847Z,64.20
2023-01-27T07:54:02.177Z,64.20
2023-01-27T07:56:33.886Z,63.50
2023-01-27T07:59:04.422Z,63.90
2023-01-27T08:01:36.193Z,64.60
2023-01-27T08:04:10.593Z,64.80
2023-01-27T08:06:46.115Z,64.70
2023-01-27T08:09:17.946Z,65.20
2023-01-27T08:11:50.495Z,64.30
2023-01-27T08:14:21.254Z,65.10
2023-01-27T08:16:53.155Z,65.10
2023-01-27T08:19:23.429Z,65.90
2023-01-27T08:21:53.806Z,65.70
2023-01-27T08:24:24.339Z,66.10
2023-01-27T08:26:54.665Z,66.40
2023-01-27T08:29:25.442Z,66.90
2023-01-27T08:31:56.033Z,67.50
2023-01-27T08:34:26.664Z,67.90
2023-01-27T08:36:56.935Z,68.00
2023-01-27T08:39:27.412Z,68.00
2023-01-27T08:41:57.673Z,68.70
2023-01-27T08:44:29.946Z,68.40
2023-01-27T08:47:00.586Z,68.30
2023-01-27T08:49:31.238Z,68.60
2023-01-27T08:52:01.966Z,68.80
2023-01-27T08:54:32.610Z,68.90
2023-01-27T08:57:04.393Z,69.10
2023-01-27T08:59:35.079Z,69.60
2023-01-27T09:02:05.713Z,70.00
2023-01-27T09:04:39.641Z,70.10
2023-01-27T09:07:10.367Z,70.50
2023-01-27T09:09:41.114Z,71.10
2023-01-27T09:12:12.235Z,71.40
2023-01-27T09:14:42.489Z,71.70
2023-01-27T09:17:12.822Z,72.00
2023-01-27T09:19:43.110Z,73.50
2023-01-27T09:22:13.355Z,72.70
2023-01-27T09:24:44.090Z,73.30
2023-01-27T09:27:14.817Z,73.80
2023-01-27T09:29:45.470Z,74.60
2023-01-27T09:32:17.361Z,75.20
2023-01-27T09:34:48.144Z,75.50
2023-01-27T09:37:19.185Z,75.70
2023-01-27T09:39:54.715Z,76.10
2023-01-27T09:42:41.079Z,76.10
2023-01-27T09:45:30.090Z,76.50
2023-01-27T09:48:27.460Z,76.80
2023-01-27T09:51:05.058Z,77.20
2023-01-27T09:54:23.004Z,77.40
2023-01-27T09:57:01.174Z,77.70
2023-01-27T09:59:50.099Z,78.10
2023-01-27T10:02:21.195Z,78.70
2023-01-27T10:04:58.610Z,78.70
2023-01-27T10:08:27.204Z,78.80
2023-01-27T10:11:11.367Z,79.00
2023-01-27T10:13:47.825Z,79.30
2023-01-27T10:16:42.326Z,79.00
2023-01-27T10:19:48.945Z,79.30
2023-01-27T10:22:50.194Z,79.00
2023-01-27T10:25:27.178Z,79.70
2023-01-27T10:28:02.087Z,79.90
2023-01-27T10:30:38.004Z,79.80
2023-01-27T10:33:21.127Z,79.90
2023-01-27T10:36:04.901Z,79.90
2023-01-27T10:38:48.138Z,79.90
2023-01-27T10:41:50.922Z,80.20
2023-01-27T10:44:46.093Z,80.60
2023-01-27T10:47:22.741Z,80.50
2023-01-27T10:50:11.133Z,81.80
2023-01-27T10:52:56.099Z,80.80
2023-01-27T10:55:37.753Z,81.30
2023-01-27T10:58:31.445Z,81.70
2023-01-27T11:01:21.672Z,81.90
2023-01-27T11:04:17.169Z,81.80
2023-01-27T11:06:49.683Z,82.10
2023-01-27T11:09:33.518Z,82.10
2023-01-27T11:12:10.608Z,82.30
2023-01-27T11:14:47.874Z,82.50
2023-01-27T11:17:30.939Z,82.20
2023-01-27T11:20:27.607Z,82.00
2023-01-27T11:23:17.471Z,82.30
2023-01-27T11:26:15.597Z,82.10
2023-01-27T11:29:07.256Z,82.30
2023-01-27T11:31:49.985Z,82.50
2023-01-27T11:34:29.723Z,83.00
2023-01-27T11:37:00.877Z,83.10
2023-01-27T11:39:35.897Z,83.20
2023-01-27T11:42:06.725Z,83.40
2023-01-27T11:44:38.982Z,83.40
2023-01-27T11:47:12.648Z,83.30
2023-01-27T11:49:48.496Z,83.50
2023-01-27T11:52:23.886Z,83.50
2023-01-27T11:55:09.405Z,83.60
2023-01-27T11:57:46.529Z,83.80
2023-01-27T12:00:45.396Z,83.50
2023-01-27T12:03:41.100Z,83.70
2023-01-27T12:06:43.242Z,83.80
2023-01-27T12:09:41.290Z,83.70
2023-01-27T12:12:17.749Z,83.70
2023-01-27T12:14:56.112Z,83.70
2023-01-27T12:17:40.406Z,83.60
2023-01-27T12:20:28.994Z,83.70
2023-01-27T12:23:07.482Z,83.80
2023-01-27T12:25:57.130Z,83.80
2023-01-27T12:28:35.109Z,83.90
2023-01-27T12:31:33.298Z,83.90
2023-01-27T12:34:28.942Z,84.20
2023-01-27T12:37:00.822Z,84.20
2023-01-27T12:39:43.879Z,84.30
2023-01-27T12:43:04.607Z,84.20
2023-01-27T12:45:40.480Z,84.10
2023-01-27T12:48:17.719Z,84.20
2023-01-27T12:50:59.542Z,84.20
2023-01-27T12:53:30.665Z,83.80
2023-01-27T12:56:23.180Z,83.80
2023-01-27T12:59:03.922Z,83.90
2023-01-27T13:01:40.002Z,83.80
2023-01-27T13:04:22.577Z,83.80
2023-01-27T13:07:08.715Z,83.80
2023-01-27T13:09:50.722Z,83.60
2023-01-27T13:12:23.666Z,83.60
2023-01-27T13:15:10.127Z,83.60
2023-01-27T13:17:52.216Z,83.60
2023-01-27T13:20:46.284Z,83.60
2023-01-27T13:23:19.445Z,83.60
2023-01-27T13:26:20.456Z,83.80
2023-01-27T13:29:12.992Z,83.70
2023-01-27T13:31:56.846Z,83.90
2023-01-27T13:34:46.961Z,83.80
2023-01-27T13:37:38.314Z,83.80
2023-01-27T13:40:32.657Z,83.90
2023-01-27T13:43:21.988Z,83.80
2023-01-27T13:46:13.967Z,83.90
2023-01-27T13:49:04.467Z,84.00
2023-01-27T13:51:39.515Z,83.90
2023-01-27T13:54:13.443Z,83.80
2023-01-27T13:57:05.647Z,83.90
2023-01-27T14:00:02.285Z,83.90
2023-01-27T14:02:57.437Z,83.90
2023-01-27T14:05:54.194Z,84.10
2023-01-27T14:08:43.167Z,84.00
2023-01-27T14:11:23.201Z,84.00
2023-01-27T14:14:19.651Z,84.10
2023-01-27T14:16:58.978Z,84.20
2023-01-27T14:20:07.314Z,84.20
2023-01-27T14:22:55.682Z,84.40
2023-01-27T14:25:47.132Z,84.40
2023-01-27T14:28:35.464Z,84.50
2023-01-27T14:31:20.886Z,84.50
2023-01-27T14:34:17.443Z,84.50
2023-01-27T14:37:32.029Z,84.50
2023-01-27T14:40:26.716Z,84.40
2023-01-27T14:43:41.548Z,84.30
2023-01-27T14:46:39.216Z,84.40
2023-01-27T14:49:15.721Z,84.30
2023-01-27T14:52:18.488Z,84.30
2023-01-27T14:55:03.369Z,84.20
2023-01-27T14:58:10.462Z,84.30
2023-01-27T15:01:03.768Z,84.30
2023-01-27T15:04:03.729Z,84.30
2023-01-27T15:06:55.312Z,84.20
2023-01-27T15:09:55.575Z,84.40
2023-01-27T15:12:34.906Z,84.60
2023-01-27T15:15:12.041Z,84.60
2023-01-27T15:17:46.975Z,84.70
2023-01-27T15:20:37.167Z,84.70
2023-01-27T15:23:33.389Z,84.80
2023-01-27T15:26:08.709Z,84.60
2023-01-27T15:28:45.004Z,84.90
2023-01-27T15:31:19.360Z,84.70
2023-01-27T15:34:16.807Z,84.90
2023-01-27T15:37:07.037Z,84.70
2023-01-27T15:40:07.581Z,84.80
2023-01-27T15:43:10.036Z,84.80
2023-01-27T15:45:47.009Z,84.90
2023-01-27T15:48:24.625Z,84.90
2023-01-27T15:51:08.000Z,85.10
2023-01-27T15:53:44.746Z,85.10
2023-01-27T15:56:15.063Z,84.80
2023-01-27T15:59:06.869Z,84.70
2023-01-27T16:01:40.528Z,84.70
2023-01-27T16:04:14.708Z,84.80
2023-01-27T16:07:06.987Z,84.90
2023-01-27T16:09:53.779Z,85.20
2023-01-27T16:12:30.448Z,86.20
2023-01-27T16:15:05.489Z,85.30
2023-01-27T16:17:36.812Z,85.30
2023-01-27T16:20:21.699Z,85.20
2023-01-27T16:23:02.116Z,85.30
2023-01-27T16:25:47.757Z,85.20
2023-01-27T16:28:30.325Z,85.20
2023-01-27T16:31:29.767Z,85.30
2023-01-27T16:34:08.411Z,85.40
2023-01-27T16:36:39.680Z,85.40
2023-01-27T16:39:30.443Z,85.50
2023-01-27T16:42:02.756Z,85.50
2023-01-27T16:44:45.179Z,85.30
2023-01-27T16:47:26.954Z,85.40
2023-01-27T16:50:02.163Z,85.50
2023-01-27T16:52:42.263Z,85.50
2023-01-27T16:55:26.985Z,85.50
2023-01-27T16:57:59.043Z,85.60
2023-01-27T17:00:34.344Z,85.60
2023-01-27T17:03:12.607Z,85.70
2023-01-27T17:05:44.346Z,85.70
2023-01-27T17:08:37.300Z,85.70
2023-01-27T17:11:16.314Z,85.70
2023-01-27T17:13:54.878Z,85.70
2023-01-27T17:16:37.448Z,85.50
2023-01-27T17:19:17.286Z,85.60
2023-01-27T17:21:52.041Z,85.60
2023-01-27T17:24:27.774Z,85.70
2023-01-27T17:27:39.079Z,85.70
2023-01-27T17:30:26.652Z,85.80
2023-01-27T17:33:10.758Z,85.90
2023-01-27T17:35:42.942Z,85.80
2023-01-27T17:38:21.973Z,85.70
2023-01-27T17:40:57.401Z,85.80
2023-01-27T17:43:33.953Z,85.90
2023-01-27T17:46:20.781Z,85.80
2023-01-27T17:49:23.670Z,85.80
2023-01-27T17:51:59.378Z,85.60
2023-01-27T17:54:41.400Z,85.70
2023-01-27T17:57:21.328Z,85.70
2023-01-27T18:00:12.798Z,85.80
2023-01-27T18:02:57.325Z,85.70
2023-01-27T18:05:31.570Z,85.80
2023-01-27T18:08:03.281Z,85.90
2023-01-27T18:10:33.858Z,86.00
2023-01-27T18:13:23.917Z,86.00
2023-01-27T18:16:04.358Z,86.00
2023-01-27T18:18:39.249Z,86.20
2023-01-27T18:21:12.896Z,86.20
2023-01-27T18:23:53.316Z,86.20
2023-01-27T18:26:45.279Z,86.50
2023-01-27T18:29:27.776Z,86.40
2023-01-27T18:32:19.708Z,86.40
2023-01-27T18:34:52.615Z,86.60
2023-01-27T18:37:26.299Z,86.70
2023-01-27T18:39:58.935Z,87.80
2023-01-27T18:42:32.826Z,86.80
2023-01-27T18:45:03.851Z,86.80
2023-01-27T18:47:39.191Z,86.90
2023-01-27T18:50:18.439Z,87.10
2023-01-27T18:52:50.391Z,87.30
2023-01-27T18:55:26.706Z,88.20
2023-01-27T18:58:01.382Z,87.30
2023-01-27T19:00:42.830Z,87.50
2023-01-27T19:03:23.943Z,87.50
2023-01-27T19:05:55.208Z,87.40
2023-01-27T19:08:36.266Z,88.30
2023-01-27T19:11:06.559Z,87.50
2023-01-27T19:13:37.305Z,87.50
2023-01-27T19:16:11.988Z,87.60
2023-01-27T19:18:43.781Z,87.60
2023-01-27T19:21:16.566Z,87.40
2023-01-27T19:23:47.586Z,87.30
2023-01-27T19:26:25.366Z,87.50
2023-01-27T19:28:58.659Z,87.50
2023-01-27T19:31:38.130Z,87.50
2023-01-27T19:34:11.267Z,87.60
2023-01-27T19:36:48.973Z,87.70
2023-01-27T19:39:23.771Z,87.50
2023-01-27T19:41:54.797Z,87.50
2023-01-27T19:44:26.438Z,87.50
2023-01-27T19:46:57.732Z,87.70
2023-01-27T19:49:28.094Z,87.70
2023-01-27T19:51:59.990Z,87.60
2023-01-27T19:54:32.155Z,87.50
2023-01-27T19:57:04.254Z,87.40
2023-01-27T19:59:35.154Z,87.30
2023-01-27T20:02:07.324Z,87.20
2023-01-27T20:04:38.238Z,87.30
2023-01-27T20:07:08.586Z,87.20
2023-01-27T20:09:39.403Z,87.40
2023-01-27T20:12:17.282Z,87.20
2023-01-27T20:14:48.429Z,86.90
2023-01-27T20:17:18.836Z,86.70
2023-01-27T20:19:49.818Z,86.60
2023-01-27T20:22:20.071Z,86.50
2023-01-27T20:24:50.677Z,86.50
2023-01-27T20:27:21.621Z,86.40
2023-01-27T20:29:52.571Z,86.40
2023-01-27T20:32:27.425Z,87.40
2023-01-27T20:35:00.883Z,86.60
2023-01-27T20:37:31.308Z,86.00
2023-01-27T20:40:01.615Z,85.70
2023-01-27T20:42:32.984Z,85.70
2023-01-27T20:45:04.208Z,86.30
2023-01-27T20:47:35.005Z,85.40
2023-01-27T20:50:07.365Z,85.40
2023-01-27T20:52:39.040Z,85.60
2023-01-27T20:55:11.169Z,85.40
2023-01-27T20:57:41.453Z,85.30
2023-01-27T21:00:18.944Z,85.20
2023-01-27T21:02:50.224Z,84.90
2023-01-27T21:05:21.515Z,84.60
2023-01-27T21:07:52.942Z,84.30
2023-01-27T21:10:23.520Z,83.60
2023-01-27T21:12:53.711Z,83.60
2023-01-27T21:15:24.461Z,83.50
2023-01-27T21:17:55.959Z,83.60
2023-01-27T21:20:26.219Z,83.20
2023-01-27T21:22:56.497Z,83.50
2023-01-27T21:25:27.641Z,83.80
2023-01-27T21:27:58.151Z,84.10
2023-01-27T21:30:29.979Z,83.90
2023-01-27T21:33:00.845Z,84.20
2023-01-27T21:35:36.113Z,84.30
2023-01-27T21:38:06.607Z,84.70
2023-01-27T21:40:36.980Z,83.40
2023-01-27T21:43:26.038Z,83.60
2023-01-27T21:46:01.678Z,82.20
2023-01-27T21:48:32.265Z,81.00
2023-01-27T21:51:02.482Z,79.20
2023-01-27T21:53:39.771Z,78.30
2023-01-27T21:56:12.414Z,76.70
2023-01-27T21:58:43.065Z,75.20
2023-01-27T22:01:13.818Z,74.00
2023-01-27T22:03:44.325Z,73.80
2023-01-27T22:06:14.611Z,72.70
2023-01-27T22:08:44.987Z,72.40
2023-01-27T22:11:15.727Z,71.30
2023-01-27T22:13:46.376Z,70.50
2023-01-27T22:16:20.199Z,70.80
2023-01-27T22:18:51.951Z,70.30
2023-01-27T22:21:22.186Z,69.40
2023-01-27T22:23:52.855Z,68.40
2023-01-27T22:26:23.208Z,68.00
2023-01-27T22:28:53.959Z,66.20
2023-01-27T22:31:24.874Z,66.00
2023-01-27T22:33:57.092Z,64.30
2023-01-27T22:36:27.330Z,64.40
2023-01-27T22:38:57.857Z,65.00
2023-01-27T22:41:28.132Z,64.30
2023-01-27T22:44:01.401Z,63.20
2023-01-27T22:46:31.776Z,62.60
2023-01-27T22:49:02.124Z,62.40
2023-01-27T22:51:32.348Z,62.40
2023-01-27T22:54:03.707Z,61.60
2023-01-27T22:56:36.112Z,61.50
2023-01-27T22:59:07.055Z,61.00
2023-01-27T23:01:37.681Z,60.90
2023-01-27T23:04:08.275Z,60.60
2023-01-27T23:06:38.568Z,60.70
2023-01-27T23:09:08.923Z,60.50
2023-01-27T23:11:39.207Z,60.90
2023-01-27T23:14:09.665Z,60.50
2023-01-27T23:16:40.389Z,60.20
2023-01-27T23:19:10.809Z,60.50
2023-01-27T23:21:41.128Z,59.80
2023-01-27T23:24:11.843Z,60.70
2023-01-27T23:26:42.302Z,59.50
2023-01-27T23:29:24.188Z,60.00
2023-01-27T23:31:55.583Z,60.00
2023-01-27T23:34:26.279Z,60.40
2023-01-27T23:36:56.651Z,60.10
2023-01-27T23:39:26.939Z,60.00
2023-01-27T23:41:57.244Z,59.60
2023-01-27T23:44:27.619Z,59.50
2023-01-27T23:46:57.938Z,59.40
2023-01-27T23:49:28.225Z,58.90
2023-01-27T23:51:58.584Z,58.40
2023-01-27T23:54:28.804Z,58.30
2023-01-27T23:56:59.467Z,58.50
2023-01-27T23:59:30.105Z,59.00
